sensor_id;sensor_type;location;lat;lon;timestamp;P1;durP1;ratioP1;P2;durP2;ratioP2
27438;SDS011;14887;51.252;7.470;2022-12-18T00:01:34;2.50;;;1.27;;
27438;SDS011;14887;51.252;7.470;2022-12-18T00:04:02;4.65;;;2.30;;
27438;SDS011;14887;51.252;7.470;2022-12-18T00:06:29;4.05;;;1.55;;
27438;SDS011;14887;51.252;7.470;2022-12-18T00:08:56;1.90;;;1.37;;
27438;SDS011;14887;51.252;7.470;2022-12-18T00:11:23;2.33;;;1.17;;
27438;SDS011;14887;51.252;7.470;2022-12-18T00:13:50;6.10;;;1.60;;
27438;SDS011;14887;51.252;7.470;2022-12-18T00:16:17;3.78;;;1.40;;
27438;SDS011;14887;51.252;7.470;2022-12-18T00:18:45;3.63;;;1.98;;
27438;SDS011;14887;51.252;7.470;2022-12-18T00:21:12;5.68;;;2.42;;
27438;SDS011;14887;51.252;7.470;2022-12-18T00:23:39;4.97;;;1.58;;
27438;SDS011;14887;51.252;7.470;2022-12-18T00:26:07;2.20;;;2.00;;
27438;SDS011;14887;51.252;7.470;2022-12-18T00:28:35;4.40;;;1.85;;
27438;SDS011;14887;51.252;7.470;2022-12-18T00:31:05;3.27;;;1.90;;
27438;SDS011;14887;51.252;7.470;2022-12-18T00:33:32;3.00;;;1.63;;
27438;SDS011;14887;51.252;7.470;2022-12-18T00:36:01;4.00;;;2.00;;
27438;SDS011;14887;51.252;7.470;2022-12-18T00:38:28;3.53;;;1.77;;
27438;SDS011;14887;51.252;7.470;2022-12-18T00:40:53;5.10;;;2.13;;
27438;SDS011;14887;51.252;7.470;2022-12-18T00:43:19;4.43;;;2.20;;
27438;SDS011;14887;51.252;7.470;2022-12-18T00:45:44;4.40;;;2.20;;
27438;SDS011;14887;51.252;7.470;2022-12-18T00:48:10;3.90;;;1.60;;
27438;SDS011;14887;51.252;7.470;2022-12-18T00:50:36;2.27;;;1.50;;
27438;SDS011;14887;51.252;7.470;2022-12-18T00:53:01;4.83;;;2.13;;
27438;SDS011;14887;51.252;7.470;2022-12-18T00:55:27;4.13;;;1.60;;
27438;SDS011;14887;51.252;7.470;2022-12-18T00:57:53;2.73;;;2.13;;
27438;SDS011;14887;51.252;7.470;2022-12-18T01:00:18;2.23;;;1.60;;
27438;SDS011;14887;51.252;7.470;2022-12-18T01:02:44;4.43;;;2.63;;
27438;SDS011;14887;51.252;7.470;2022-12-18T01:05:10;2.73;;;1.70;;
27438;SDS011;14887;51.252;7.470;2022-12-18T01:07:37;2.83;;;1.90;;
27438;SDS011;14887;51.252;7.470;2022-12-18T01:10:03;2.00;;;1.30;;
27438;SDS011;14887;51.252;7.470;2022-12-18T01:12:30;1.80;;;1.50;;
27438;SDS011;14887;51.252;7.470;2022-12-18T01:14:56;2.80;;;1.60;;
27438;SDS011;14887;51.252;7.470;2022-12-18T01:17:22;2.57;;;1.83;;
27438;SDS011;14887;51.252;7.470;2022-12-18T01:19:47;2.70;;;1.77;;
27438;SDS011;14887;51.252;7.470;2022-12-18T01:22:13;4.70;;;2.13;;
27438;SDS011;14887;51.252;7.470;2022-12-18T01:24:38;5.80;;;1.70;;
27438;SDS011;14887;51.252;7.470;2022-12-18T01:27:04;5.87;;;2.40;;
27438;SDS011;14887;51.252;7.470;2022-12-18T01:29:30;3.57;;;1.97;;
27438;SDS011;14887;51.252;7.470;2022-12-18T01:31:55;2.50;;;1.47;;
27438;SDS011;14887;51.252;7.470;2022-12-18T01:34:21;4.47;;;2.40;;
27438;SDS011;14887;51.252;7.470;2022-12-18T01:36:48;2.42;;;2.00;;
27438;SDS011;14887;51.252;7.470;2022-12-18T01:39:14;4.40;;;2.20;;
27438;SDS011;14887;51.252;7.470;2022-12-18T01:41:40;2.75;;;2.00;;
27438;SDS011;14887;51.252;7.470;2022-12-18T01:52:43;2.75;;;1.55;;
27438;SDS011;14887;51.252;7.470;2022-12-18T01:55:12;4.10;;;1.67;;
27438;SDS011;14887;51.252;7.470;2022-12-18T01:57:42;3.55;;;2.05;;
27438;SDS011;14887;51.252;7.470;2022-12-18T02:00:15;4.33;;;1.77;;
27438;SDS011;14887;51.252;7.470;2022-12-18T02:02:43;4.97;;;1.70;;
27438;SDS011;14887;51.252;7.470;2022-12-18T02:05:10;6.35;;;2.00;;
27438;SDS011;14887;51.252;7.470;2022-12-18T02:07:52;3.92;;;1.67;;
27438;SDS011;14887;51.252;7.470;2022-12-18T02:10:29;6.57;;;2.25;;
27438;SDS011;14887;51.252;7.470;2022-12-18T02:13:29;5.18;;;2.55;;
27438;SDS011;14887;51.252;7.470;2022-12-18T02:16:59;3.10;;;1.75;;
27438;SDS011;14887;51.252;7.470;2022-12-18T02:19:17;4.07;;;1.75;;
27438;SDS011;14887;51.252;7.470;2022-12-18T02:25:18;8.13;;;2.28;;
27438;SDS011;14887;51.252;7.470;2022-12-18T02:27:59;5.45;;;1.90;;
27438;SDS011;14887;51.252;7.470;2022-12-18T02:30:29;4.13;;;1.83;;
27438;SDS011;14887;51.252;7.470;2022-12-18T02:32:58;4.03;;;2.25;;
27438;SDS011;14887;51.252;7.470;2022-12-18T02:35:29;3.42;;;1.80;;
27438;SDS011;14887;51.252;7.470;2022-12-18T02:37:56;4.40;;;1.60;;
27438;SDS011;14887;51.252;7.470;2022-12-18T02:40:23;4.75;;;2.60;;
27438;SDS011;14887;51.252;7.470;2022-12-18T02:42:50;2.70;;;1.70;;
27438;SDS011;14887;51.252;7.470;2022-12-18T02:45:16;5.97;;;3.27;;
27438;SDS011;14887;51.252;7.470;2022-12-18T02:47:43;6.60;;;2.90;;
27438;SDS011;14887;51.252;7.470;2022-12-18T02:52:54;5.18;;;1.98;;
27438;SDS011;14887;51.252;7.470;2022-12-18T02:58:17;5.40;;;2.55;;
27438;SDS011;14887;51.252;7.470;2022-12-18T03:03:36;4.47;;;1.98;;
27438;SDS011;14887;51.252;7.470;2022-12-18T03:06:10;3.65;;;2.28;;
27438;SDS011;14887;51.252;7.470;2022-12-18T03:08:44;3.72;;;2.08;;
27438;SDS011;14887;51.252;7.470;2022-12-18T03:11:13;3.58;;;1.88;;
27438;SDS011;14887;51.252;7.470;2022-12-18T03:13:49;3.53;;;2.28;;
27438;SDS011;14887;51.252;7.470;2022-12-18T03:16:22;3.60;;;2.50;;
27438;SDS011;14887;51.252;7.470;2022-12-18T03:18:56;3.15;;;1.88;;
27438;SDS011;14887;51.252;7.470;2022-12-18T03:21:29;6.38;;;2.25;;
27438;SDS011;14887;51.252;7.470;2022-12-18T03:24:06;8.18;;;3.03;;
27438;SDS011;14887;51.252;7.470;2022-12-18T03:26:34;5.25;;;2.33;;
27438;SDS011;14887;51.252;7.470;2022-12-18T03:29:07;4.18;;;2.75;;
27438;SDS011;14887;51.252;7.470;2022-12-18T03:31:37;3.92;;;1.95;;
27438;SDS011;14887;51.252;7.470;2022-12-18T03:34:09;5.72;;;2.50;;
27438;SDS011;14887;51.252;7.470;2022-12-18T03:36:38;5.00;;;2.30;;
27438;SDS011;14887;51.252;7.470;2022-12-18T03:39:03;2.93;;;2.17;;
27438;SDS011;14887;51.252;7.470;2022-12-18T03:41:31;5.37;;;2.93;;
27438;SDS011;14887;51.252;7.470;2022-12-18T03:49:29;2.78;;;1.52;;
27438;SDS011;14887;51.252;7.470;2022-12-18T03:52:07;6.35;;;2.60;;
27438;SDS011;14887;51.252;7.470;2022-12-18T03:54:36;9.40;;;2.17;;
27438;SDS011;14887;51.252;7.470;2022-12-18T03:57:16;2.13;;;1.67;;
27438;SDS011;14887;51.252;7.470;2022-12-18T03:59:48;5.75;;;2.42;;
27438;SDS011;14887;51.252;7.470;2022-12-18T04:02:17;6.88;;;2.90;;
27438;SDS011;14887;51.252;7.470;2022-12-18T04:04:43;5.13;;;2.80;;
27438;SDS011;14887;51.252;7.470;2022-12-18T04:07:10;4.93;;;2.38;;
27438;SDS011;14887;51.252;7.470;2022-12-18T04:09:38;4.60;;;2.08;;
27438;SDS011;14887;51.252;7.470;2022-12-18T04:12:04;6.47;;;2.30;;
27438;SDS011;14887;51.252;7.470;2022-12-18T04:14:30;4.03;;;2.03;;
27438;SDS011;14887;51.252;7.470;2022-12-18T04:17:00;7.57;;;2.58;;
27438;SDS011;14887;51.252;7.470;2022-12-18T04:19:26;5.10;;;2.60;;
27438;SDS011;14887;51.252;7.470;2022-12-18T04:21:51;5.83;;;2.50;;
27438;SDS011;14887;51.252;7.470;2022-12-18T04:24:17;2.13;;;1.67;;
27438;SDS011;14887;51.252;7.470;2022-12-18T04:26:42;2.93;;;2.57;;
27438;SDS011;14887;51.252;7.470;2022-12-18T04:29:08;4.70;;;2.83;;
27438;SDS011;14887;51.252;7.470;2022-12-18T04:31:33;3.20;;;2.00;;
27438;SDS011;14887;51.252;7.470;2022-12-18T04:33:59;5.90;;;2.53;;
27438;SDS011;14887;51.252;7.470;2022-12-18T04:36:24;1.80;;;1.70;;
27438;SDS011;14887;51.252;7.470;2022-12-18T04:38:50;11.03;;;2.70;;
27438;SDS011;14887;51.252;7.470;2022-12-18T04:41:16;6.90;;;2.07;;
27438;SDS011;14887;51.252;7.470;2022-12-18T04:43:41;6.57;;;3.00;;
27438;SDS011;14887;51.252;7.470;2022-12-18T04:46:07;4.00;;;1.87;;
27438;SDS011;14887;51.252;7.470;2022-12-18T04:48:33;8.15;;;2.85;;
27438;SDS011;14887;51.252;7.470;2022-12-18T04:50:59;5.45;;;2.30;;
27438;SDS011;14887;51.252;7.470;2022-12-18T04:53:25;4.33;;;2.00;;
27438;SDS011;14887;51.252;7.470;2022-12-18T04:55:50;17.63;;;4.20;;
27438;SDS011;14887;51.252;7.470;2022-12-18T04:58:26;10.30;;;2.60;;
27438;SDS011;14887;51.252;7.470;2022-12-18T05:00:51;4.37;;;3.00;;
27438;SDS011;14887;51.252;7.470;2022-12-18T05:03:17;6.30;;;2.70;;
27438;SDS011;14887;51.252;7.470;2022-12-18T05:05:42;3.70;;;2.00;;
27438;SDS011;14887;51.252;7.470;2022-12-18T05:08:08;5.23;;;2.50;;
27438;SDS011;14887;51.252;7.470;2022-12-18T05:10:33;9.33;;;3.00;;
27438;SDS011;14887;51.252;7.470;2022-12-18T05:12:59;6.33;;;2.80;;
27438;SDS011;14887;51.252;7.470;2022-12-18T05:15:29;7.73;;;3.03;;
27438;SDS011;14887;51.252;7.470;2022-12-18T05:17:56;2.45;;;2.03;;
27438;SDS011;14887;51.252;7.470;2022-12-18T05:20:22;2.92;;;1.88;;
27438;SDS011;14887;51.252;7.470;2022-12-18T05:22:48;5.82;;;2.85;;
27438;SDS011;14887;51.252;7.470;2022-12-18T05:25:14;3.92;;;2.35;;
27438;SDS011;14887;51.252;7.470;2022-12-18T05:27:40;4.57;;;2.30;;
27438;SDS011;14887;51.252;7.470;2022-12-18T05:30:06;7.63;;;2.50;;
27438;SDS011;14887;51.252;7.470;2022-12-18T05:32:33;4.05;;;2.55;;
27438;SDS011;14887;51.252;7.470;2022-12-18T05:34:58;6.03;;;2.23;;
27438;SDS011;14887;51.252;7.470;2022-12-18T05:37:24;4.93;;;2.33;;
27438;SDS011;14887;51.252;7.470;2022-12-18T05:39:49;3.83;;;2.17;;
27438;SDS011;14887;51.252;7.470;2022-12-18T05:42:15;5.83;;;2.60;;
27438;SDS011;14887;51.252;7.470;2022-12-18T05:44:40;5.47;;;2.50;;
27438;SDS011;14887;51.252;7.470;2022-12-18T05:47:06;10.20;;;3.67;;
27438;SDS011;14887;51.252;7.470;2022-12-18T05:49:31;5.57;;;1.83;;
27438;SDS011;14887;51.252;7.470;2022-12-18T05:51:57;5.97;;;2.73;;
27438;SDS011;14887;51.252;7.470;2022-12-18T05:54:22;7.27;;;2.73;;
27438;SDS011;14887;51.252;7.470;2022-12-18T05:56:48;2.80;;;1.77;;
27438;SDS011;14887;51.252;7.470;2022-12-18T05:59:13;6.23;;;2.70;;
27438;SDS011;14887;51.252;7.470;2022-12-18T06:01:39;5.90;;;2.97;;
27438;SDS011;14887;51.252;7.470;2022-12-18T06:04:04;4.97;;;2.27;;
27438;SDS011;14887;51.252;7.470;2022-12-18T06:06:30;6.50;;;3.10;;
27438;SDS011;14887;51.252;7.470;2022-12-18T06:08:55;5.70;;;2.43;;
27438;SDS011;14887;51.252;7.470;2022-12-18T06:11:22;7.93;;;2.70;;
27438;SDS011;14887;51.252;7.470;2022-12-18T06:13:53;5.30;;;2.17;;
27438;SDS011;14887;51.252;7.470;2022-12-18T06:16:20;11.90;;;4.60;;
27438;SDS011;14887;51.252;7.470;2022-12-18T06:18:45;4.23;;;2.40;;
27438;SDS011;14887;51.252;7.470;2022-12-18T06:21:11;7.53;;;2.30;;
27438;SDS011;14887;51.252;7.470;2022-12-18T06:23:36;4.00;;;2.70;;
27438;SDS011;14887;51.252;7.470;2022-12-18T06:26:06;4.13;;;2.17;;
27438;SDS011;14887;51.252;7.470;2022-12-18T06:28:33;7.40;;;3.30;;
27438;SDS011;14887;51.252;7.470;2022-12-18T06:30:58;4.70;;;2.50;;
27438;SDS011;14887;51.252;7.470;2022-12-18T06:33:26;12.70;;;2.97;;
27438;SDS011;14887;51.252;7.470;2022-12-18T06:35:52;4.80;;;2.40;;
27438;SDS011;14887;51.252;7.470;2022-12-18T06:38:18;5.30;;;2.47;;
27438;SDS011;14887;51.252;7.470;2022-12-18T06:40:44;5.93;;;2.53;;
27438;SDS011;14887;51.252;7.470;2022-12-18T06:43:09;4.93;;;2.40;;
27438;SDS011;14887;51.252;7.470;2022-12-18T06:45:35;13.70;;;3.20;;
27438;SDS011;14887;51.252;7.470;2022-12-18T06:48:00;8.30;;;1.93;;
27438;SDS011;14887;51.252;7.470;2022-12-18T06:50:26;7.97;;;4.27;;
27438;SDS011;14887;51.252;7.470;2022-12-18T06:52:52;9.30;;;3.73;;
27438;SDS011;14887;51.252;7.470;2022-12-18T06:55:17;12.60;;;4.10;;
27438;SDS011;14887;51.252;7.470;2022-12-18T06:57:43;8.37;;;3.40;;
27438;SDS011;14887;51.252;7.470;2022-12-18T07:00:09;4.80;;;3.63;;
27438;SDS011;14887;51.252;7.470;2022-12-18T07:02:35;9.77;;;4.90;;
27438;SDS011;14887;51.252;7.470;2022-12-18T07:05:01;7.53;;;3.73;;
27438;SDS011;14887;51.252;7.470;2022-12-18T07:07:27;10.75;;;3.53;;
27438;SDS011;14887;51.252;7.470;2022-12-18T07:09:52;9.90;;;3.83;;
27438;SDS011;14887;51.252;7.470;2022-12-18T07:12:18;5.43;;;3.03;;
27438;SDS011;14887;51.252;7.470;2022-12-18T07:14:44;8.80;;;3.43;;
27438;SDS011;14887;51.252;7.470;2022-12-18T07:17:09;4.87;;;2.87;;
27438;SDS011;14887;51.252;7.470;2022-12-18T07:19:35;8.53;;;3.20;;
27438;SDS011;14887;51.252;7.470;2022-12-18T07:22:00;7.80;;;3.17;;
27438;SDS011;14887;51.252;7.470;2022-12-18T07:24:26;4.80;;;2.50;;
27438;SDS011;14887;51.252;7.470;2022-12-18T07:26:53;5.63;;;2.50;;
27438;SDS011;14887;51.252;7.470;2022-12-18T07:29:18;5.73;;;2.37;;
27438;SDS011;14887;51.252;7.470;2022-12-18T07:31:44;8.33;;;3.00;;
27438;SDS011;14887;51.252;7.470;2022-12-18T07:34:13;6.50;;;3.17;;
27438;SDS011;14887;51.252;7.470;2022-12-18T07:36:40;5.22;;;2.60;;
27438;SDS011;14887;51.252;7.470;2022-12-18T07:39:06;5.38;;;3.15;;
27438;SDS011;14887;51.252;7.470;2022-12-18T07:41:31;7.70;;;2.97;;
27438;SDS011;14887;51.252;7.470;2022-12-18T07:43:57;5.37;;;3.20;;
27438;SDS011;14887;51.252;7.470;2022-12-18T07:46:22;7.23;;;2.47;;
27438;SDS011;14887;51.252;7.470;2022-12-18T07:48:48;6.50;;;2.30;;
27438;SDS011;14887;51.252;7.470;2022-12-18T07:51:14;5.93;;;3.00;;
27438;SDS011;14887;51.252;7.470;2022-12-18T07:53:39;5.03;;;3.10;;
27438;SDS011;14887;51.252;7.470;2022-12-18T07:56:06;5.30;;;2.10;;
27438;SDS011;14887;51.252;7.470;2022-12-18T07:58:34;5.27;;;2.60;;
27438;SDS011;14887;51.252;7.470;2022-12-18T08:01:06;5.80;;;3.10;;
27438;SDS011;14887;51.252;7.470;2022-12-18T08:03:36;4.68;;;2.40;;
27438;SDS011;14887;51.252;7.470;2022-12-18T08:06:03;5.88;;;2.50;;
27438;SDS011;14887;51.252;7.470;2022-12-18T08:08:31;5.25;;;2.75;;
27438;SDS011;14887;51.252;7.470;2022-12-18T08:10:57;8.20;;;3.10;;
27438;SDS011;14887;51.252;7.470;2022-12-18T08:13:23;4.53;;;3.20;;
27438;SDS011;14887;51.252;7.470;2022-12-18T08:15:59;8.48;;;4.35;;
27438;SDS011;14887;51.252;7.470;2022-12-18T08:18:32;8.05;;;5.75;;
27438;SDS011;14887;51.252;7.470;2022-12-18T08:21:06;7.57;;;4.10;;
27438;SDS011;14887;51.252;7.470;2022-12-18T08:23:34;6.63;;;3.97;;
27438;SDS011;14887;51.252;7.470;2022-12-18T08:25:59;5.50;;;2.07;;
27438;SDS011;14887;51.252;7.470;2022-12-18T08:28:25;6.37;;;3.83;;
27438;SDS011;14887;51.252;7.470;2022-12-18T08:30:51;10.03;;;4.17;;
27438;SDS011;14887;51.252;7.470;2022-12-18T08:33:17;6.50;;;4.10;;
27438;SDS011;14887;51.252;7.470;2022-12-18T08:35:42;11.67;;;6.67;;
27438;SDS011;14887;51.252;7.470;2022-12-18T08:38:08;7.50;;;5.20;;
27438;SDS011;14887;51.252;7.470;2022-12-18T08:40:33;9.03;;;4.03;;
27438;SDS011;14887;51.252;7.470;2022-12-18T08:42:59;6.70;;;4.17;;
27438;SDS011;14887;51.252;7.470;2022-12-18T08:45:43;7.03;;;3.57;;
27438;SDS011;14887;51.252;7.470;2022-12-18T08:48:09;8.73;;;4.27;;
27438;SDS011;14887;51.252;7.470;2022-12-18T08:50:34;6.20;;;3.90;;
27438;SDS011;14887;51.252;7.470;2022-12-18T08:53:00;8.37;;;3.27;;
27438;SDS011;14887;51.252;7.470;2022-12-18T08:55:26;7.03;;;3.63;;
27438;SDS011;14887;51.252;7.470;2022-12-18T08:57:52;9.90;;;6.23;;
27438;SDS011;14887;51.252;7.470;2022-12-18T09:00:18;9.47;;;4.30;;
27438;SDS011;14887;51.252;7.470;2022-12-18T09:02:43;9.10;;;3.37;;
27438;SDS011;14887;51.252;7.470;2022-12-18T09:05:09;6.70;;;3.27;;
27438;SDS011;14887;51.252;7.470;2022-12-18T09:07:35;9.30;;;2.97;;
27438;SDS011;14887;51.252;7.470;2022-12-18T09:10:00;11.00;;;4.47;;
27438;SDS011;14887;51.252;7.470;2022-12-18T09:12:26;5.17;;;2.10;;
27438;SDS011;14887;51.252;7.470;2022-12-18T09:14:51;5.30;;;2.50;;
27438;SDS011;14887;51.252;7.470;2022-12-18T09:17:17;5.73;;;2.93;;
27438;SDS011;14887;51.252;7.470;2022-12-18T09:19:42;6.10;;;2.73;;
27438;SDS011;14887;51.252;7.470;2022-12-18T09:22:08;5.37;;;2.73;;
27438;SDS011;14887;51.252;7.470;2022-12-18T09:24:34;5.80;;;2.83;;
27438;SDS011;14887;51.252;7.470;2022-12-18T09:27:00;4.13;;;2.50;;
27438;SDS011;14887;51.252;7.470;2022-12-18T09:29:25;3.90;;;2.73;;
27438;SDS011;14887;51.252;7.470;2022-12-18T09:31:51;5.70;;;2.53;;
27438;SDS011;14887;51.252;7.470;2022-12-18T09:34:16;4.60;;;2.70;;
27438;SDS011;14887;51.252;7.470;2022-12-18T09:36:42;7.83;;;2.60;;
27438;SDS011;14887;51.252;7.470;2022-12-18T09:39:08;3.33;;;2.33;;
27438;SDS011;14887;51.252;7.470;2022-12-18T09:41:37;7.87;;;3.07;;
27438;SDS011;14887;51.252;7.470;2022-12-18T09:44:18;4.23;;;1.80;;
27438;SDS011;14887;51.252;7.470;2022-12-18T09:46:47;3.83;;;2.33;;
27438;SDS011;14887;51.252;7.470;2022-12-18T09:49:23;6.10;;;2.60;;
27438;SDS011;14887;51.252;7.470;2022-12-18T09:51:55;7.50;;;2.47;;
27438;SDS011;14887;51.252;7.470;2022-12-18T09:54:30;6.13;;;3.87;;
27438;SDS011;14887;51.252;7.470;2022-12-18T09:57:09;2.50;;;2.00;;
27438;SDS011;14887;51.252;7.470;2022-12-18T09:59:40;8.60;;;2.70;;
27438;SDS011;14887;51.252;7.470;2022-12-18T10:02:19;6.67;;;2.90;;
27438;SDS011;14887;51.252;7.470;2022-12-18T10:04:48;5.97;;;2.10;;
27438;SDS011;14887;51.252;7.470;2022-12-18T10:10:29;6.53;;;2.60;;
27438;SDS011;14887;51.252;7.470;2022-12-18T10:13:08;9.30;;;3.43;;
27438;SDS011;14887;51.252;7.470;2022-12-18T10:21:30;5.00;;;2.20;;
27438;SDS011;14887;51.252;7.470;2022-12-18T10:27:14;17.23;;;5.37;;
27438;SDS011;14887;51.252;7.470;2022-12-18T10:29:42;6.20;;;3.80;;
27438;SDS011;14887;51.252;7.470;2022-12-18T10:32:16;6.40;;;3.33;;
27438;SDS011;14887;51.252;7.470;2022-12-18T10:34:56;3.83;;;1.67;;
27438;SDS011;14887;51.252;7.470;2022-12-18T10:37:24;5.57;;;2.63;;
27438;SDS011;14887;51.252;7.470;2022-12-18T10:40:11;3.10;;;1.60;;
27438;SDS011;14887;51.252;7.470;2022-12-18T10:42:38;4.40;;;2.67;;
27438;SDS011;14887;51.252;7.470;2022-12-18T10:45:13;7.73;;;2.57;;
27438;SDS011;14887;51.252;7.470;2022-12-18T10:47:44;4.23;;;2.03;;
27438;SDS011;14887;51.252;7.470;2022-12-18T10:50:20;4.03;;;2.20;;
27438;SDS011;14887;51.252;7.470;2022-12-18T10:52:54;5.30;;;2.10;;
27438;SDS011;14887;51.252;7.470;2022-12-18T10:55:27;4.93;;;2.30;;
27438;SDS011;14887;51.252;7.470;2022-12-18T11:01:44;5.53;;;2.37;;
27438;SDS011;14887;51.252;7.470;2022-12-18T11:03:43;5.10;;;2.50;;
27438;SDS011;14887;51.252;7.470;2022-12-18T11:06:17;3.97;;;2.30;;
27438;SDS011;14887;51.252;7.470;2022-12-18T11:11:23;4.10;;;1.87;;
27438;SDS011;14887;51.252;7.470;2022-12-18T11:14:32;6.00;;;2.73;;
27438;SDS011;14887;51.252;7.470;2022-12-18T11:16:43;3.63;;;1.90;;
27438;SDS011;14887;51.252;7.470;2022-12-18T11:21:44;5.53;;;2.00;;
27438;SDS011;14887;51.252;7.470;2022-12-18T11:24:20;1.90;;;1.60;;
27438;SDS011;14887;51.252;7.470;2022-12-18T11:26:53;4.83;;;1.90;;
27438;SDS011;14887;51.252;7.470;2022-12-18T11:29:23;3.90;;;2.20;;
27438;SDS011;14887;51.252;7.470;2022-12-18T11:32:09;4.23;;;2.40;;
27438;SDS011;14887;51.252;7.470;2022-12-18T11:34:39;10.13;;;2.83;;
27438;SDS011;14887;51.252;7.470;2022-12-18T11:37:14;6.17;;;2.87;;
27438;SDS011;14887;51.252;7.470;2022-12-18T11:40:01;9.93;;;3.30;;
27438;SDS011;14887;51.252;7.470;2022-12-18T11:42:39;6.03;;;2.37;;
27438;SDS011;14887;51.252;7.470;2022-12-18T11:47:44;7.30;;;2.53;;
27438;SDS011;14887;51.252;7.470;2022-12-18T11:50:12;4.37;;;2.30;;
27438;SDS011;14887;51.252;7.470;2022-12-18T11:52:50;3.20;;;1.80;;
27438;SDS011;14887;51.252;7.470;2022-12-18T11:55:19;5.73;;;2.30;;
27438;SDS011;14887;51.252;7.470;2022-12-18T11:58:00;7.73;;;3.17;;
27438;SDS011;14887;51.252;7.470;2022-12-18T12:00:40;3.67;;;1.90;;
27438;SDS011;14887;51.252;7.470;2022-12-18T12:12:01;4.13;;;2.60;;
27438;SDS011;14887;51.252;7.470;2022-12-18T12:14:47;4.07;;;2.10;;
27438;SDS011;14887;51.252;7.470;2022-12-18T12:17:24;4.47;;;2.67;;
27438;SDS011;14887;51.252;7.470;2022-12-18T12:25:58;6.60;;;3.10;;
27438;SDS011;14887;51.252;7.470;2022-12-18T12:28:46;6.50;;;2.90;;
27438;SDS011;14887;51.252;7.470;2022-12-18T12:31:26;7.07;;;2.70;;
27438;SDS011;14887;51.252;7.470;2022-12-18T12:34:14;4.87;;;2.70;;
27438;SDS011;14887;51.252;7.470;2022-12-18T12:39:37;6.70;;;3.57;;
27438;SDS011;14887;51.252;7.470;2022-12-18T12:42:05;7.70;;;3.80;;
27438;SDS011;14887;51.252;7.470;2022-12-18T12:45:04;5.10;;;3.00;;
27438;SDS011;14887;51.252;7.470;2022-12-18T12:47:38;6.07;;;3.00;;
27438;SDS011;14887;51.252;7.470;2022-12-18T12:50:07;7.83;;;2.80;;
27438;SDS011;14887;51.252;7.470;2022-12-18T12:52:42;9.37;;;3.67;;
27438;SDS011;14887;51.252;7.470;2022-12-18T12:55:17;6.80;;;3.00;;
27438;SDS011;14887;51.252;7.470;2022-12-18T13:01:09;9.23;;;3.83;;
27438;SDS011;14887;51.252;7.470;2022-12-18T13:09:23;10.77;;;4.80;;
27438;SDS011;14887;51.252;7.470;2022-12-18T13:11:49;13.17;;;4.67;;
27438;SDS011;14887;51.252;7.470;2022-12-18T13:14:37;10.57;;;4.57;;
27438;SDS011;14887;51.252;7.470;2022-12-18T13:17:14;10.50;;;4.50;;
27438;SDS011;14887;51.252;7.470;2022-12-18T13:20:02;7.70;;;3.50;;
27438;SDS011;14887;51.252;7.470;2022-12-18T13:22:32;12.60;;;5.37;;
27438;SDS011;14887;51.252;7.470;2022-12-18T13:25:03;12.90;;;6.27;;
27438;SDS011;14887;51.252;7.470;2022-12-18T13:28:03;8.50;;;4.17;;
27438;SDS011;14887;51.252;7.470;2022-12-18T13:39:08;8.30;;;4.57;;
27438;SDS011;14887;51.252;7.470;2022-12-18T13:40:59;11.13;;;5.40;;
27438;SDS011;14887;51.252;7.470;2022-12-18T13:43:45;9.70;;;4.93;;
27438;SDS011;14887;51.252;7.470;2022-12-18T13:46:30;10.20;;;4.40;;
27438;SDS011;14887;51.252;7.470;2022-12-18T13:51:39;24.00;;;12.10;;
27438;SDS011;14887;51.252;7.470;2022-12-18T13:56:45;14.70;;;4.67;;
27438;SDS011;14887;51.252;7.470;2022-12-18T14:02:25;13.70;;;5.00;;
27438;SDS011;14887;51.252;7.470;2022-12-18T14:04:53;13.57;;;6.27;;
27438;SDS011;14887;51.252;7.470;2022-12-18T14:09:50;12.80;;;5.80;;
27438;SDS011;14887;51.252;7.470;2022-12-18T14:17:59;13.93;;;7.13;;
27438;SDS011;14887;51.252;7.470;2022-12-18T14:20:28;12.10;;;5.93;;
27438;SDS011;14887;51.252;7.470;2022-12-18T14:22:56;16.43;;;5.77;;
27438;SDS011;14887;51.252;7.470;2022-12-18T14:25:23;16.80;;;4.80;;
27438;SDS011;14887;51.252;7.470;2022-12-18T14:30:37;11.40;;;5.00;;
27438;SDS011;14887;51.252;7.470;2022-12-18T14:35:34;15.20;;;6.10;;
27438;SDS011;14887;51.252;7.470;2022-12-18T14:38:36;9.60;;;5.37;;
27438;SDS011;14887;51.252;7.470;2022-12-18T14:41:02;14.10;;;4.57;;
27438;SDS011;14887;51.252;7.470;2022-12-18T14:43:37;12.70;;;4.80;;
27438;SDS011;14887;51.252;7.470;2022-12-18T14:48:53;8.00;;;4.67;;
27438;SDS011;14887;51.252;7.470;2022-12-18T14:51:26;23.17;;;6.13;;
27438;SDS011;14887;51.252;7.470;2022-12-18T14:54:00;12.33;;;5.90;;
27438;SDS011;14887;51.252;7.470;2022-12-18T14:56:44;12.33;;;5.77;;
27438;SDS011;14887;51.252;7.470;2022-12-18T14:59:22;14.23;;;6.60;;
27438;SDS011;14887;51.252;7.470;2022-12-18T15:04:43;20.87;;;6.43;;
27438;SDS011;14887;51.252;7.470;2022-12-18T15:07:12;14.60;;;5.90;;
27438;SDS011;14887;51.252;7.470;2022-12-18T15:09:39;19.73;;;6.57;;
27438;SDS011;14887;51.252;7.470;2022-12-18T15:12:26;15.90;;;7.00;;
27438;SDS011;14887;51.252;7.470;2022-12-18T15:14:58;18.63;;;7.57;;
27438;SDS011;14887;51.252;7.470;2022-12-18T15:17:24;14.17;;;6.97;;
27438;SDS011;14887;51.252;7.470;2022-12-18T15:19:50;11.40;;;5.33;;
27438;SDS011;14887;51.252;7.470;2022-12-18T15:24:55;20.30;;;6.73;;
27438;SDS011;14887;51.252;7.470;2022-12-18T15:27:22;15.17;;;6.77;;
27438;SDS011;14887;51.252;7.470;2022-12-18T15:30:00;15.83;;;7.23;;
27438;SDS011;14887;51.252;7.470;2022-12-18T15:32:32;15.63;;;7.40;;
27438;SDS011;14887;51.252;7.470;2022-12-18T15:35:02;18.63;;;6.47;;
27438;SDS011;14887;51.252;7.470;2022-12-18T15:37:28;20.03;;;7.87;;
27438;SDS011;14887;51.252;7.470;2022-12-18T15:39:54;19.53;;;7.17;;
27438;SDS011;14887;51.252;7.470;2022-12-18T15:42:20;41.00;;;7.00;;
27438;SDS011;14887;51.252;7.470;2022-12-18T15:45:04;15.63;;;6.40;;
27438;SDS011;14887;51.252;7.470;2022-12-18T15:47:30;23.33;;;7.73;;
27438;SDS011;14887;51.252;7.470;2022-12-18T15:49:55;17.97;;;6.87;;
27438;SDS011;14887;51.252;7.470;2022-12-18T15:52:21;11.30;;;5.27;;
27438;SDS011;14887;51.252;7.470;2022-12-18T15:54:50;13.77;;;7.00;;
27438;SDS011;14887;51.252;7.470;2022-12-18T15:57:34;18.50;;;7.73;;
27438;SDS011;14887;51.252;7.470;2022-12-18T16:00:00;13.37;;;6.30;;
27438;SDS011;14887;51.252;7.470;2022-12-18T16:02:26;24.30;;;8.23;;
27438;SDS011;14887;51.252;7.470;2022-12-18T16:04:53;14.60;;;6.50;;
27438;SDS011;14887;51.252;7.470;2022-12-18T16:07:19;16.10;;;7.03;;
27438;SDS011;14887;51.252;7.470;2022-12-18T16:09:45;14.03;;;6.07;;
27438;SDS011;14887;51.252;7.470;2022-12-18T16:12:15;18.60;;;7.87;;
27438;SDS011;14887;51.252;7.470;2022-12-18T16:14:45;15.80;;;6.67;;
27438;SDS011;14887;51.252;7.470;2022-12-18T16:17:11;20.63;;;8.03;;
27438;SDS011;14887;51.252;7.470;2022-12-18T16:19:37;18.70;;;7.00;;
27438;SDS011;14887;51.252;7.470;2022-12-18T16:22:03;21.93;;;9.03;;
27438;SDS011;14887;51.252;7.470;2022-12-18T16:24:31;21.97;;;8.97;;
27438;SDS011;14887;51.252;7.470;2022-12-18T16:26:58;18.50;;;7.50;;
27438;SDS011;14887;51.252;7.470;2022-12-18T16:29:26;17.47;;;7.80;;
27438;SDS011;14887;51.252;7.470;2022-12-18T16:31:53;14.27;;;7.13;;
27438;SDS011;14887;51.252;7.470;2022-12-18T16:34:45;20.10;;;7.77;;
27438;SDS011;14887;51.252;7.470;2022-12-18T16:37:30;19.10;;;8.63;;
27438;SDS011;14887;51.252;7.470;2022-12-18T16:39:55;22.40;;;9.80;;
27438;SDS011;14887;51.252;7.470;2022-12-18T16:42:21;23.20;;;9.50;;
27438;SDS011;14887;51.252;7.470;2022-12-18T16:44:47;22.03;;;8.50;;
27438;SDS011;14887;51.252;7.470;2022-12-18T16:47:13;28.23;;;9.70;;
27438;SDS011;14887;51.252;7.470;2022-12-18T16:49:40;18.70;;;8.93;;
27438;SDS011;14887;51.252;7.470;2022-12-18T16:52:05;21.70;;;8.40;;
27438;SDS011;14887;51.252;7.470;2022-12-18T16:54:32;21.17;;;8.50;;